createdAt,value
2023-04-18T00:01:46.714Z,63.10
2023-04-18T00:04:18.373Z,61.60
2023-04-18T00:06:49.721Z,62.70
2023-04-18T00:09:17.896Z,61.90
2023-04-18T00:11:45.993Z,62.80
2023-04-18T00:14:14.571Z,62.50
2023-04-18T00:16:43.351Z,62.80
2023-04-18T00:19:11.447Z,61.90
2023-04-18T00:21:44.999Z,63.60
2023-04-18T00:24:14.938Z,63.40
2023-04-18T00:26:43.199Z,62.80
2023-04-18T00:29:11.219Z,62.50
2023-04-18T00:31:39.329Z,61.80
2023-04-18T00:34:07.517Z,62.40
2023-04-18T00:36:35.573Z,61.60
2023-04-18T00:39:03.717Z,62.40
2023-04-18T00:41:33.186Z,62.80
2023-04-18T00:44:01.314Z,62.70
2023-04-18T00:46:29.516Z,63.50
2023-04-18T00:48:57.653Z,62.90
2023-04-18T00:51:25.715Z,62.60
2023-04-18T00:53:53.821Z,62.30
2023-04-18T00:56:21.882Z,62.90
2023-04-18T00:58:51.444Z,62.60
2023-04-18T01:01:19.473Z,62.50
2023-04-18T01:03:47.707Z,63.60
2023-04-18T01:06:15.903Z,63.90
2023-04-18T01:08:44.178Z,63.60
2023-04-18T01:11:12.179Z,64.40
2023-04-18T01:13:40.295Z,63.40
2023-04-18T01:16:09.826Z,63.20
2023-04-18T01:18:40.522Z,62.70
2023-04-18T01:21:08.628Z,64.70
2023-04-18T01:23:36.707Z,64.20
2023-04-18T01:26:06.337Z,63.40
2023-04-18T01:28:37.183Z,63.60
2023-04-18T01:31:05.291Z,64.40
2023-04-18T01:33:33.435Z,63.90
2023-04-18T01:36:01.486Z,63.90
2023-04-18T01:38:29.570Z,63.10
2023-04-18T01:40:57.706Z,63.80
2023-04-18T01:43:27.167Z,63.60
2023-04-18T01:45:55.211Z,62.70
2023-04-18T01:48:23.272Z,62.20
2023-04-18T01:50:51.310Z,63.50
2023-04-18T01:53:19.406Z,62.70
2023-04-18T01:55:47.536Z,62.40
2023-04-18T01:58:16.339Z,62.50
2023-04-18T02:00:46.006Z,63.10
2023-04-18T02:03:14.357Z,62.90
2023-04-18T02:05:42.507Z,62.70
2023-04-18T02:08:11.755Z,62.60
2023-04-18T02:10:42.727Z,62.40
2023-04-18T02:13:11.147Z,61.60
2023-04-18T02:15:41.668Z,62.80
2023-04-18T02:18:11.664Z,62.10
2023-04-18T02:20:42.699Z,62.60
2023-04-18T02:23:10.894Z,62.90
2023-04-18T02:25:39.521Z,62.80
2023-04-18T02:28:07.596Z,61.50
2023-04-18T02:30:35.769Z,62.90
2023-04-18T02:33:03.956Z,62.70
2023-04-18T02:35:33.552Z,62.90
2023-04-18T02:38:01.665Z,61.90
2023-04-18T02:40:29.707Z,62.30
2023-04-18T02:42:58.297Z,62.60
2023-04-18T02:45:26.531Z,62.20
2023-04-18T02:47:56.554Z,62.30
2023-04-18T02:50:25.193Z,63.00
2023-04-18T02:52:54.729Z,62.30
2023-04-18T02:55:23.047Z,61.70
2023-04-18T02:57:51.202Z,62.40
2023-04-18T03:00:19.764Z,61.40
2023-04-18T03:02:47.967Z,61.20
2023-04-18T03:05:16.177Z,61.20
2023-04-18T03:07:44.213Z,61.50
2023-04-18T03:10:13.741Z,61.10
2023-04-18T03:12:41.819Z,62.60
2023-04-18T03:15:10.636Z,62.20
2023-04-18T03:17:38.756Z,61.60
2023-04-18T03:20:08.069Z,62.00
2023-04-18T03:22:36.125Z,62.10
2023-04-18T03:25:04.426Z,60.70
2023-04-18T03:27:33.890Z,60.80
2023-04-18T03:30:02.024Z,62.30
2023-04-18T03:32:33.858Z,61.70
2023-04-18T03:35:01.931Z,61.80
2023-04-18T03:37:30.043Z,61.40
2023-04-18T03:39:58.397Z,61.90
2023-04-18T03:42:27.546Z,61.50
2023-04-18T03:44:56.922Z,62.10
2023-04-18T03:47:25.111Z,62.80
2023-04-18T03:49:54.268Z,61.80
2023-04-18T03:52:22.385Z,61.80
2023-04-18T03:54:50.414Z,62.40
2023-04-18T03:57:18.509Z,62.50
2023-04-18T03:59:47.927Z,62.70
2023-04-18T04:02:17.519Z,63.10
2023-04-18T04:04:45.623Z,62.00
2023-04-18T04:07:13.955Z,61.80
2023-04-18T04:09:42.002Z,62.70
2023-04-18T04:12:10.123Z,62.40
2023-04-18T04:14:38.285Z,62.80
2023-04-18T04:17:06.715Z,62.70
2023-04-18T04:19:36.119Z,62.60
2023-04-18T04:22:04.183Z,62.20
2023-04-18T04:24:33.285Z,63.40
2023-04-18T04:27:01.514Z,62.70
2023-04-18T04:29:30.057Z,61.80
2023-04-18T04:31:59.342Z,62.10
2023-04-18T04:34:27.535Z,62.20
2023-04-18T04:36:57.528Z,63.20
2023-04-18T04:39:25.624Z,62.90
2023-04-18T04:41:54.635Z,62.90
2023-04-18T04:44:25.911Z,62.50
2023-04-18T04:46:54.558Z,62.50
2023-04-18T04:49:22.671Z,62.40
2023-04-18T04:51:50.801Z,62.30
2023-04-18T04:54:20.477Z,62.70
2023-04-18T04:56:48.847Z,62.80
2023-04-18T04:59:18.183Z,62.40
2023-04-18T05:01:46.869Z,61.60
2023-04-18T05:04:15.344Z,62.90
2023-04-18T05:06:43.815Z,63.70
2023-04-18T05:09:11.933Z,64.00
2023-04-18T05:11:41.678Z,63.00
2023-04-18T05:14:09.805Z,62.80
2023-04-18T05:16:40.908Z,63.00
2023-04-18T05:19:09.400Z,63.80
2023-04-18T05:21:37.951Z,62.90
2023-04-18T05:24:06.169Z,63.00
2023-04-18T05:26:34.354Z,63.30
2023-04-18T05:29:03.818Z,63.20
2023-04-18T05:31:32.359Z,63.70
2023-04-18T05:34:00.737Z,63.10
2023-04-18T05:36:29.111Z,63.90
2023-04-18T05:38:57.353Z,63.20
2023-04-18T05:41:25.787Z,62.60
2023-04-18T05:44:04.307Z,63.00
2023-04-18T05:46:34.710Z,63.10
2023-04-18T05:49:03.668Z,63.50
2023-04-18T05:51:32.101Z,63.20
2023-04-18T05:54:07.361Z,63.60
2023-04-18T05:56:35.740Z,63.90
2023-04-18T05:59:04.180Z,64.40
2023-04-18T06:01:32.582Z,63.40
2023-04-18T06:04:02.488Z,63.60
2023-04-18T06:06:31.589Z,64.10
2023-04-18T06:09:00.154Z,64.50
2023-04-18T06:11:28.297Z,64.30
2023-04-18T06:13:56.811Z,64.50
2023-04-18T06:16:24.987Z,63.00
2023-04-18T06:18:53.218Z,63.70
2023-04-18T06:21:23.390Z,63.40
2023-04-18T06:23:51.531Z,63.40
2023-04-18T06:26:22.414Z,63.40
2023-04-18T06:28:50.663Z,64.30
2023-04-18T06:31:19.087Z,63.60
2023-04-18T06:33:47.384Z,63.50
2023-04-18T06:36:15.752Z,64.00
2023-04-18T06:38:45.373Z,64.20
2023-04-18T06:41:14.386Z,64.60
2023-04-18T06:43:52.113Z,64.10
2023-04-18T06:46:30.160Z,64.20
2023-04-18T06:48:58.560Z,63.70
2023-04-18T06:51:27.406Z,64.00
2023-04-18T06:53:56.919Z,63.20
2023-04-18T06:56:25.322Z,62.50
2023-04-18T06:58:53.775Z,61.70
2023-04-18T07:01:22.071Z,61.60
2023-04-18T07:03:50.835Z,61.50
2023-04-18T07:06:19.171Z,61.00
2023-04-18T07:08:47.329Z,60.20
2023-04-18T07:11:21.291Z,60.60
2023-04-18T07:13:50.445Z,61.80
2023-04-18T07:16:20.581Z,61.80
2023-04-18T07:18:48.833Z,61.20
2023-04-18T07:21:16.909Z,61.30
2023-04-18T07:23:45.290Z,61.20
2023-04-18T07:26:13.809Z,61.30
2023-04-18T07:28:43.297Z,61.40
2023-04-18T07:31:11.780Z,61.30
2023-04-18T07:33:43.463Z,61.60
2023-04-18T07:36:11.692Z,61.80
2023-04-18T07:38:41.701Z,62.80
2023-04-18T07:41:09.793Z,62.40
2023-04-18T07:43:39.161Z,61.80
2023-04-18T07:46:09.144Z,60.60
2023-04-18T07:48:37.324Z,61.40
2023-04-18T07:51:05.676Z,61.10
2023-04-18T07:53:33.839Z,61.90
2023-04-18T07:56:01.970Z,60.70
2023-04-18T07:58:30.383Z,60.90
2023-04-18T08:00:58.724Z,60.40
2023-04-18T08:03:29.907Z,60.20
2023-04-18T08:05:58.340Z,61.60
2023-04-18T08:08:26.503Z,60.50
2023-04-18T08:10:54.640Z,60.10
2023-04-18T08:13:23.034Z,60.30
2023-04-18T08:15:51.123Z,60.20
2023-04-18T08:18:20.073Z,59.90
2023-04-18T08:20:49.508Z,59.90
2023-04-18T08:23:17.688Z,59.80
2023-04-18T08:25:45.865Z,59.40
2023-04-18T08:28:14.353Z,59.40
2023-04-18T08:30:43.194Z,60.30
2023-04-18T08:33:11.345Z,61.60
2023-04-18T08:35:39.522Z,59.80
2023-04-18T08:38:09.384Z,59.50
2023-04-18T08:40:38.036Z,59.00
2023-04-18T08:43:09.460Z,58.50
2023-04-18T08:45:37.796Z,58.20
2023-04-18T08:48:06.359Z,56.60
2023-04-18T08:50:34.466Z,55.40
2023-04-18T08:53:02.842Z,55.20
2023-04-18T08:55:33.710Z,55.50
2023-04-18T08:58:02.206Z,55.10
2023-04-18T09:00:30.752Z,55.00
2023-04-18T09:02:59.288Z,55.60
2023-04-18T09:05:27.910Z,56.10
2023-04-18T09:07:56.867Z,55.00
2023-04-18T09:10:29.212Z,55.80
2023-04-18T09:12:58.920Z,55.40
2023-04-18T09:15:29.285Z,55.90
2023-04-18T09:17:58.256Z,56.80
2023-04-18T09:20:38.034Z,56.90
2023-04-18T09:23:10.627Z,57.60
2023-04-18T09:25:45.348Z,59.70
2023-04-18T09:28:27.348Z,60.80
2023-04-18T09:30:56.737Z,58.80
2023-04-18T09:33:29.345Z,58.50
2023-04-18T09:36:01.488Z,58.60
2023-04-18T09:38:40.310Z,58.10
2023-04-18T09:41:09.598Z,57.20
2023-04-18T09:43:39.082Z,57.10
2023-04-18T09:46:07.278Z,59.40
2023-04-18T09:48:35.628Z,57.90
2023-04-18T09:51:07.274Z,58.50
2023-04-18T09:53:36.131Z,57.90
2023-04-18T09:56:04.240Z,57.60
2023-04-18T09:58:32.989Z,57.90
2023-04-18T10:01:02.630Z,57.40
2023-04-18T10:03:34.804Z,57.00
2023-04-18T10:06:03.319Z,56.70
2023-04-18T10:08:31.711Z,58.20
2023-04-18T10:10:59.985Z,57.50
2023-04-18T10:13:28.372Z,56.60
2023-04-18T10:15:56.656Z,57.00
2023-04-18T10:18:26.638Z,56.70
2023-04-18T10:21:02.143Z,55.90
2023-04-18T10:23:37.476Z,59.60
2023-04-18T10:26:05.957Z,56.20
2023-04-18T10:28:54.636Z,57.30
2023-04-18T10:31:23.519Z,56.80
2023-04-18T10:34:03.985Z,56.30
2023-04-18T10:36:33.198Z,56.00
2023-04-18T10:39:03.202Z,56.00
2023-04-18T10:41:31.717Z,54.80
2023-04-18T10:44:19.446Z,53.60
2023-04-18T10:47:22.253Z,54.60
2023-04-18T10:50:06.297Z,55.10
2023-04-18T10:52:35.015Z,53.10
2023-04-18T10:55:43.589Z,54.30
2023-04-18T10:58:13.015Z,52.10
2023-04-18T11:00:41.199Z,53.70
2023-04-18T11:03:09.551Z,53.00
2023-04-18T11:05:39.411Z,54.20
2023-04-18T11:08:23.695Z,56.10
2023-04-18T11:10:58.450Z,54.40
2023-04-18T11:13:26.876Z,55.10
2023-04-18T11:15:55.163Z,53.10
2023-04-18T11:18:24.216Z,54.70
2023-04-18T11:20:53.805Z,55.20
2023-04-18T11:23:25.051Z,53.90
2023-04-18T11:25:54.497Z,53.40
2023-04-18T11:28:24.850Z,51.50
2023-04-18T11:30:52.965Z,54.60
2023-04-18T11:33:21.159Z,52.20
2023-04-18T11:35:49.270Z,52.20
2023-04-18T11:38:19.285Z,53.10
2023-04-18T11:40:50.703Z,51.60
2023-04-18T11:43:21.667Z,51.80
2023-04-18T11:45:54.242Z,52.00
2023-04-18T11:48:22.661Z,51.80
2023-04-18T11:50:50.949Z,51.50
2023-04-18T11:53:35.787Z,50.20
2023-04-18T11:56:04.033Z,52.40
2023-04-18T11:58:33.465Z,51.70
2023-04-18T12:01:01.966Z,51.90
2023-04-18T12:03:30.448Z,52.00
2023-04-18T12:06:02.313Z,52.40
2023-04-18T12:08:32.417Z,53.30
2023-04-18T12:11:02.079Z,53.40
2023-04-18T12:13:33.252Z,52.50
2023-04-18T12:16:02.787Z,53.00
2023-04-18T12:18:31.648Z,52.20
2023-04-18T12:21:02.048Z,52.50
2023-04-18T12:23:31.196Z,52.70
2023-04-18T12:26:07.444Z,52.50
2023-04-18T12:28:36.035Z,52.30
2023-04-18T12:31:05.958Z,52.70
2023-04-18T12:33:34.118Z,51.90
2023-04-18T12:36:02.437Z,52.80
2023-04-18T12:38:30.488Z,52.10
2023-04-18T12:40:58.707Z,50.50
2023-04-18T12:43:28.119Z,50.90
2023-04-18T12:45:56.693Z,50.60
2023-04-18T12:48:25.116Z,51.30
2023-04-18T12:50:53.352Z,51.40
2023-04-18T12:53:21.496Z,51.70
2023-04-18T12:55:49.626Z,51.80
2023-04-18T12:58:18.814Z,51.80
2023-04-18T13:00:48.739Z,52.80
2023-04-18T13:03:17.055Z,51.10
2023-04-18T13:05:45.433Z,49.50
2023-04-18T13:08:17.603Z,51.60
2023-04-18T13:10:46.277Z,52.00
2023-04-18T13:13:14.553Z,50.20
2023-04-18T13:15:42.762Z,52.50
2023-04-18T13:18:12.254Z,50.90
2023-04-18T13:20:40.356Z,53.60
2023-04-18T13:23:08.480Z,50.10
2023-04-18T13:25:36.620Z,51.30
2023-04-18T13:28:05.143Z,53.50
2023-04-18T13:30:35.763Z,52.70
2023-04-18T13:33:04.197Z,50.00
2023-04-18T13:35:33.827Z,48.70
2023-04-18T13:38:02.044Z,51.00
2023-04-18T13:40:30.235Z,51.30
2023-04-18T13:42:58.470Z,49.30
2023-04-18T13:45:26.673Z,50.70
2023-04-18T13:47:55.108Z,50.60
2023-04-18T13:50:24.107Z,50.40
2023-04-18T13:52:54.901Z,50.00
2023-04-18T13:55:23.092Z,51.20
2023-04-18T13:57:51.322Z,50.50
2023-04-18T14:00:20.468Z,50.00
2023-04-18T14:02:50.956Z,48.20
2023-04-18T14:05:19.722Z,49.20
2023-04-18T14:07:48.623Z,50.30
2023-04-18T14:10:18.820Z,49.80
2023-04-18T14:12:46.980Z,49.50
2023-04-18T14:15:15.377Z,49.20
2023-04-18T14:17:45.792Z,48.10
2023-04-18T14:20:15.705Z,46.90
2023-04-18T14:22:44.211Z,47.10
2023-04-18T14:25:12.473Z,48.20
2023-04-18T14:27:42.173Z,48.40
2023-04-18T14:30:11.643Z,49.10
2023-04-18T14:32:39.849Z,48.50
2023-04-18T14:35:09.507Z,49.00
2023-04-18T14:37:37.791Z,50.80
2023-04-18T14:40:08.308Z,50.80
2023-04-18T14:42:36.464Z,49.80
2023-04-18T14:45:08.406Z,49.70
2023-04-18T14:47:39.120Z,49.40
2023-04-18T14:50:08.485Z,48.90
2023-04-18T14:52:36.642Z,50.80
2023-04-18T14:55:05.087Z,49.90
2023-04-18T14:57:33.173Z,49.10
2023-04-18T15:00:01.656Z,48.70
2023-04-18T15:02:31.601Z,49.30
2023-04-18T15:05:00.663Z,49.20
2023-04-18T15:07:28.883Z,49.80
2023-04-18T15:09:58.323Z,49.30
2023-04-18T15:12:29.991Z,50.40
2023-04-18T15:14:58.576Z,50.30
2023-04-18T15:17:29.462Z,50.20
2023-04-18T15:20:00.195Z,49.00
2023-04-18T15:22:29.919Z,50.30
2023-04-18T15:25:01.551Z,50.20
2023-04-18T15:27:30.041Z,49.50
2023-04-18T15:29:58.527Z,50.30
2023-04-18T15:32:27.273Z,49.50
2023-04-18T15:34:55.407Z,48.90
2023-04-18T15:37:24.960Z,49.80
2023-04-18T15:39:53.126Z,51.10
2023-04-18T15:42:21.251Z,49.30
2023-04-18T15:44:50.045Z,51.00
2023-04-18T15:47:18.183Z,50.60
2023-04-18T15:49:46.248Z,49.50
2023-04-18T15:52:16.047Z,49.00
2023-04-18T15:54:45.893Z,50.30
2023-04-18T15:57:14.158Z,51.10
2023-04-18T15:59:42.232Z,49.40
2023-04-18T16:02:10.461Z,48.80
2023-04-18T16:04:38.738Z,49.90
2023-04-18T16:07:07.173Z,49.40
2023-04-18T16:09:35.312Z,49.10
2023-04-18T16:12:07.225Z,49.40
2023-04-18T16:14:35.399Z,50.40
2023-04-18T16:17:03.984Z,49.30
2023-04-18T16:19:33.379Z,50.10
2023-04-18T16:22:03.190Z,49.60
2023-04-18T16:24:31.326Z,51.30
2023-04-18T16:26:59.450Z,50.30
2023-04-18T16:29:28.927Z,50.50
2023-04-18T16:31:57.098Z,51.00
2023-04-18T16:34:25.174Z,50.10
2023-04-18T16:36:55.146Z,50.00
2023-04-18T16:39:23.867Z,50.90
2023-04-18T16:41:52.327Z,50.70
2023-04-18T16:44:21.039Z,51.00
2023-04-18T16:46:50.614Z,51.30
2023-04-18T16:49:19.173Z,51.10
2023-04-18T16:51:47.313Z,52.10
2023-04-18T16:54:15.618Z,51.60
2023-04-18T16:56:44.855Z,51.60
2023-04-18T16:59:12.955Z,51.10
2023-04-18T17:01:41.132Z,51.30
2023-04-18T17:04:10.738Z,51.20
2023-04-18T17:06:38.890Z,52.50
2023-04-18T17:09:07.303Z,50.90
2023-04-18T17:11:39.545Z,51.30
2023-04-18T17:14:08.095Z,51.20
2023-04-18T17:16:38.091Z,51.50
2023-04-18T17:19:06.345Z,53.20
2023-04-18T17:21:36.547Z,52.70
2023-04-18T17:24:07.016Z,52.70
2023-04-18T17:26:35.808Z,52.90
2023-04-18T17:29:04.485Z,52.00
2023-04-18T17:31:32.843Z,52.20
2023-04-18T17:34:01.026Z,51.80
2023-04-18T17:36:29.263Z,52.80
2023-04-18T17:39:05.405Z,52.00
2023-04-18T17:41:36.343Z,51.80
2023-04-18T17:44:04.633Z,51.10
2023-04-18T17:46:32.939Z,51.60
2023-04-18T17:49:01.141Z,51.20
2023-04-18T17:51:29.274Z,52.70
2023-04-18T17:53:58.815Z,53.30
2023-04-18T17:56:27.408Z,54.10
2023-04-18T17:58:56.793Z,52.60
2023-04-18T18:01:26.334Z,54.80
2023-04-18T18:03:54.944Z,53.50
2023-04-18T18:06:23.262Z,54.20
2023-04-18T18:08:51.499Z,52.70
2023-04-18T18:11:21.500Z,52.90
2023-04-18T18:13:51.751Z,52.80
2023-04-18T18:16:20.175Z,53.90
2023-04-18T18:18:48.291Z,53.70
2023-04-18T18:21:16.586Z,53.80
2023-04-18T18:23:44.707Z,54.60
2023-04-18T18:26:12.925Z,55.20
2023-04-18T18:28:42.536Z,54.10
2023-04-18T18:31:10.683Z,55.20
2023-04-18T18:33:38.869Z,55.20
2023-04-18T18:36:07.304Z,55.40
2023-04-18T18:38:35.391Z,55.70
2023-04-18T18:41:04.684Z,55.20
2023-04-18T18:43:32.797Z,55.70
2023-04-18T18:46:02.349Z,55.20
2023-04-18T18:48:30.453Z,55.90
2023-04-18T18:50:58.511Z,56.70
2023-04-18T18:53:26.616Z,56.70
2023-04-18T18:55:54.708Z,55.70
2023-04-18T18:58:22.760Z,55.20
2023-04-18T19:00:51.209Z,57.10
2023-04-18T19:03:21.702Z,57.10
2023-04-18T19:05:50.052Z,56.70
2023-04-18T19:08:18.128Z,56.20
2023-04-18T19:10:46.244Z,56.40
2023-04-18T19:13:14.278Z,56.20
2023-04-18T19:15:42.430Z,56.40
2023-04-18T19:18:10.770Z,56.20
2023-04-18T19:20:41.782Z,56.80
2023-04-18T19:23:09.809Z,57.60
2023-04-18T19:25:37.904Z,58.90
2023-04-18T19:28:06.199Z,57.60
2023-04-18T19:30:34.283Z,57.00
2023-04-18T19:33:02.356Z,56.70
2023-04-18T19:35:30.498Z,56.80
2023-04-18T19:38:01.803Z,57.10
2023-04-18T19:40:29.985Z,58.50
2023-04-18T19:42:58.577Z,58.50
2023-04-18T19:45:26.797Z,57.20
2023-04-18T19:47:54.976Z,56.60
2023-04-18T19:50:23.044Z,57.30
2023-04-18T19:52:51.090Z,57.90
2023-04-18T19:55:20.831Z,58.30
2023-04-18T19:57:48.922Z,58.00
2023-04-18T20:00:19.116Z,59.20
2023-04-18T20:02:47.288Z,58.70
2023-04-18T20:05:15.673Z,59.00
2023-04-18T20:07:43.830Z,58.40
2023-04-18T20:10:12.217Z,58.40
2023-04-18T20:12:41.700Z,58.40
2023-04-18T20:15:10.790Z,59.20
2023-04-18T20:17:38.914Z,59.20
2023-04-18T20:20:10.491Z,58.30
2023-04-18T20:22:40.388Z,58.20
2023-04-18T20:25:09.005Z,58.40
2023-04-18T20:27:37.109Z,59.80
2023-04-18T20:30:08.588Z,59.30
2023-04-18T20:32:36.899Z,58.90
2023-04-18T20:35:05.561Z,59.50
2023-04-18T20:37:36.853Z,58.50
2023-04-18T20:40:08.079Z,59.50
2023-04-18T20:42:37.160Z,58.90
2023-04-18T20:45:11.300Z,60.30
2023-04-18T20:47:40.129Z,58.80
2023-04-18T20:50:10.754Z,59.50
2023-04-18T20:52:38.840Z,59.90
2023-04-18T20:55:08.053Z,59.90
2023-04-18T20:57:36.945Z,60.00
2023-04-18T21:00:08.227Z,60.40
2023-04-18T21:02:36.627Z,60.60
2023-04-18T21:05:05.120Z,59.90
2023-04-18T21:07:33.243Z,60.80
2023-04-18T21:10:01.338Z,60.40
2023-04-18T21:12:29.493Z,60.30
2023-04-18T21:14:57.603Z,60.20
2023-04-18T21:17:27.333Z,60.90
2023-04-18T21:19:56.432Z,61.30
2023-04-18T21:22:24.683Z,60.80
2023-04-18T21:24:52.840Z,60.80
2023-04-18T21:27:20.932Z,60.40
2023-04-18T21:29:49.032Z,60.80
2023-04-18T21:32:17.144Z,60.80
2023-04-18T21:34:46.582Z,60.90
2023-04-18T21:37:14.676Z,61.60
2023-04-18T21:39:42.747Z,60.40
2023-04-18T21:42:11.882Z,60.50
2023-04-18T21:44:39.976Z,60.90
2023-04-18T21:47:08.140Z,61.10
2023-04-18T21:49:36.218Z,60.20
2023-04-18T21:52:05.990Z,60.20
2023-04-18T21:54:34.051Z,60.60
2023-04-18T21:57:02.748Z,59.50
2023-04-18T21:59:31.106Z,60.20
2023-04-18T22:01:59.276Z,60.90
2023-04-18T22:04:27.737Z,60.70
2023-04-18T22:06:56.965Z,60.70
2023-04-18T22:09:26.427Z,60.30
2023-04-18T22:11:57.057Z,61.50
2023-04-18T22:14:26.153Z,61.10
2023-04-18T22:16:54.781Z,60.80
2023-04-18T22:19:22.871Z,61.20
2023-04-18T22:21:51.025Z,61.50
2023-04-18T22:24:19.724Z,60.90
2023-04-18T22:26:49.188Z,60.50
2023-04-18T22:29:17.317Z,61.30
2023-04-18T22:31:45.433Z,61.30
2023-04-18T22:34:13.808Z,61.30
2023-04-18T22:36:42.853Z,60.70
2023-04-18T22:39:12.144Z,61.40
2023-04-18T22:41:40.383Z,61.10
2023-04-18T22:44:09.811Z,60.50
2023-04-18T22:46:38.813Z,61.00
2023-04-18T22:49:07.318Z,61.00
2023-04-18T22:51:35.405Z,60.40
2023-04-18T22:54:03.501Z,61.40
2023-04-18T22:56:31.578Z,60.90
2023-04-18T22:58:59.632Z,60.90
2023-04-18T23:01:29.100Z,60.50
2023-04-18T23:03:57.468Z,62.00
2023-04-18T23:06:28.045Z,61.00
2023-04-18T23:08:56.572Z,61.60
2023-04-18T23:11:24.763Z,60.70
2023-04-18T23:13:52.818Z,60.90
2023-04-18T23:16:21.099Z,61.40
2023-04-18T23:18:50.611Z,61.70
2023-04-18T23:21:18.771Z,61.20
2023-04-18T23:23:46.931Z,61.00
2023-04-18T23:26:15.170Z,60.50
2023-04-18T23:28:43.411Z,61.40
2023-04-18T23:31:11.845Z,61.80
2023-04-18T23:33:39.926Z,61.60
2023-04-18T23:36:10.055Z,62.40
2023-04-18T23:38:38.479Z,62.50
2023-04-18T23:41:06.717Z,62.30
2023-04-18T23:43:35.248Z,61.40
2023-04-18T23:46:03.367Z,61.60
2023-04-18T23:48:31.402Z,62.40
2023-04-18T23:50:59.512Z,61.30
2023-04-18T23:53:29.101Z,62.30
2023-04-18T23:55:57.199Z,62.10
2023-04-18T23:58:26.479Z,61.70
